sensor_id;sensor_type;location;lat;lon;timestamp;pressure;altitude;pressure_sealevel;temperature;humidity
69306;BME280;56427;51.580;4.656;2023-04-05T00:01:27;102482.44;;;2.58;100.00
69306;BME280;56427;51.580;4.656;2023-04-05T00:03:57;102477.31;;;2.58;100.00
69306;BME280;56427;51.580;4.656;2023-04-05T00:06:28;102475.13;;;2.43;100.00
69306;BME280;56427;51.580;4.656;2023-04-05T00:08:57;102481.56;;;2.21;100.00
69306;BME280;56427;51.580;4.656;2023-04-05T00:11:27;102478.16;;;2.21;100.00
69306;BME280;56427;51.580;4.656;2023-04-05T00:13:53;102482.34;;;2.24;100.00
69306;BME280;56427;51.580;4.656;2023-04-05T00:16:19;102478.97;;;2.23;100.00
69306;BME280;56427;51.580;4.656;2023-04-05T00:18:45;102477.22;;;2.24;100.00
69306;BME280;56427;51.580;4.656;2023-04-05T00:21:16;102473.97;;;2.17;100.00
69306;BME280;56427;51.580;4.656;2023-04-05T00:23:42;102475.72;;;2.15;100.00
69306;BME280;56427;51.580;4.656;2023-04-05T00:26:10;102471.53;;;2.12;100.00
69306;BME280;56427;51.580;4.656;2023-04-05T00:28:35;102477.41;;;2.17;100.00
69306;BME280;56427;51.580;4.656;2023-04-05T00:31:04;102477.41;;;2.17;100.00
69306;BME280;56427;51.580;4.656;2023-04-05T00:33:30;102473.97;;;2.17;100.00
69306;BME280;56427;51.580;4.656;2023-04-05T00:35:55;102468.03;;;2.15;100.00
69306;BME280;56427;51.580;4.656;2023-04-05T00:38:20;102473.28;;;2.09;100.00
69306;BME280;56427;51.580;4.656;2023-04-05T00:40:46;102470.63;;;2.13;100.00
69306;BME280;56427;51.580;4.656;2023-04-05T00:43:11;102471.56;;;2.11;100.00
69306;BME280;56427;51.580;4.656;2023-04-05T00:45:37;102472.75;;;2.33;100.00
69306;BME280;56427;51.580;4.656;2023-04-05T00:48:03;102464.97;;;2.38;100.00
69306;BME280;56427;51.580;4.656;2023-04-05T00:50:29;102462.72;;;2.24;100.00
69306;BME280;56427;51.580;4.656;2023-04-05T00:52:56;102460.16;;;1.83;100.00
69306;BME280;56427;51.580;4.656;2023-04-05T00:55:22;102462.66;;;1.87;100.00
69306;BME280;56427;51.580;4.656;2023-04-05T00:57:48;102455.75;;;1.90;100.00
69306;BME280;56427;51.580;4.656;2023-04-05T01:00:14;102459.16;;;1.91;100.00
69306;BME280;56427;51.580;4.656;2023-04-05T01:02:44;102462.84;;;1.77;100.00
69306;BME280;56427;51.580;4.656;2023-04-05T01:05:39;102457.97;;;1.65;100.00
69306;BME280;56427;51.580;4.656;2023-04-05T01:08:17;102450.53;;;1.51;100.00
69306;BME280;56427;51.580;4.656;2023-04-05T01:10:50;102448.25;;;1.39;100.00
69306;BME280;56427;51.580;4.656;2023-04-05T01:13:18;102452.41;;;1.43;100.00
69306;BME280;56427;51.580;4.656;2023-04-05T01:15:44;102451.50;;;1.47;100.00
69306;BME280;56427;51.580;4.656;2023-04-05T01:18:11;102454.81;;;1.52;100.00
69306;BME280;56427;51.580;4.656;2023-04-05T01:20:41;102440.25;;;1.54;100.00
69306;BME280;56427;51.580;4.656;2023-04-05T01:25:59;102452.59;;;1.77;100.00
69306;BME280;56427;51.580;4.656;2023-04-05T01:28:58;102441.94;;;1.55;100.00
69306;BME280;56427;51.580;4.656;2023-04-05T01:31:40;102451.22;;;1.61;100.00
69306;BME280;56427;51.580;4.656;2023-04-05T01:34:25;102442.69;;;1.60;100.00
69306;BME280;56427;51.580;4.656;2023-04-05T01:36:56;102433.53;;;1.50;100.00
69306;BME280;56427;51.580;4.656;2023-04-05T01:39:23;102431.66;;;1.58;100.00
69306;BME280;56427;51.580;4.656;2023-04-05T01:41:50;102438.69;;;1.49;100.00
69306;BME280;56427;51.580;4.656;2023-04-05T01:44:15;102430.06;;;1.51;100.00
69306;BME280;56427;51.580;4.656;2023-04-05T01:46:41;102427.69;;;1.43;100.00
69306;BME280;56427;51.580;4.656;2023-04-05T01:49:06;102424.59;;;1.26;100.00
69306;BME280;56427;51.580;4.656;2023-04-05T01:51:32;102414.72;;;1.06;100.00
69306;BME280;56427;51.580;4.656;2023-04-05T01:54:00;102413.81;;;1.08;100.00
69306;BME280;56427;51.580;4.656;2023-04-05T01:56:26;102412.19;;;1.04;100.00
69306;BME280;56427;51.580;4.656;2023-04-05T01:58:51;102416.53;;;1.01;100.00
69306;BME280;56427;51.580;4.656;2023-04-05T02:01:16;102410.56;;;1.00;100.00
69306;BME280;56427;51.580;4.656;2023-04-05T02:03:42;102409.63;;;1.06;100.00
69306;BME280;56427;51.580;4.656;2023-04-05T02:06:07;102408.19;;;0.91;100.00
69306;BME280;56427;51.580;4.656;2023-04-05T02:08:32;102410.81;;;0.86;100.00
69306;BME280;56427;51.580;4.656;2023-04-05T02:10:58;102404.25;;;0.70;100.00
69306;BME280;56427;51.580;4.656;2023-04-05T02:13:23;102401.09;;;0.55;100.00
69306;BME280;56427;51.580;4.656;2023-04-05T02:15:50;102388.25;;;0.59;100.00
69306;BME280;56427;51.580;4.656;2023-04-05T02:18:16;102388.97;;;0.67;100.00
69306;BME280;56427;51.580;4.656;2023-04-05T02:20:48;102383.09;;;0.62;100.00
69306;BME280;56427;51.580;4.656;2023-04-05T02:23:14;102394.88;;;0.70;100.00
69306;BME280;56427;51.580;4.656;2023-04-05T02:25:39;102396.53;;;0.75;100.00
69306;BME280;56427;51.580;4.656;2023-04-05T02:28:04;102387.03;;;0.81;100.00
69306;BME280;56427;51.580;4.656;2023-04-05T02:30:33;102390.47;;;0.79;100.00
69306;BME280;56427;51.580;4.656;2023-04-05T02:32:58;102384.66;;;0.70;100.00
69306;BME280;56427;51.580;4.656;2023-04-05T02:35:24;102388.94;;;0.70;100.00
69306;BME280;56427;51.580;4.656;2023-04-05T02:37:49;102383.81;;;0.70;100.00
69306;BME280;56427;51.580;4.656;2023-04-05T02:40:15;102376.44;;;0.53;100.00
69306;BME280;56427;51.580;4.656;2023-04-05T02:42:40;102382.16;;;0.13;100.00
69306;BME280;56427;51.580;4.656;2023-04-05T02:45:06;102379.63;;;0.10;100.00
69306;BME280;56427;51.580;4.656;2023-04-05T02:47:32;102378.88;;;0.03;100.00
69306;BME280;56427;51.580;4.656;2023-04-05T02:49:58;102384.00;;;0.02;100.00
69306;BME280;56427;51.580;4.656;2023-04-05T02:52:23;102384.88;;;0.02;100.00
69306;BME280;56427;51.580;4.656;2023-04-05T02:54:49;102385.03;;;-0.10;100.00
69306;BME280;56427;51.580;4.656;2023-04-05T02:57:15;102378.31;;;-0.17;100.00
69306;BME280;56427;51.580;4.656;2023-04-05T02:59:40;102365.34;;;-0.02;100.00
69306;BME280;56427;51.580;4.656;2023-04-05T03:02:08;102367.16;;;-0.10;100.00
69306;BME280;56427;51.580;4.656;2023-04-05T03:04:33;102374.84;;;-0.13;100.00
69306;BME280;56427;51.580;4.656;2023-04-05T03:07:00;102363.72;;;-0.06;100.00
69306;BME280;56427;51.580;4.656;2023-04-05T03:09:28;102361.88;;;0.04;100.00
69306;BME280;56427;51.580;4.656;2023-04-05T03:12:00;102360.16;;;0.04;100.00
69306;BME280;56427;51.580;4.656;2023-04-05T03:14:26;102359.38;;;0.01;100.00
69306;BME280;56427;51.580;4.656;2023-04-05T03:16:52;102359.31;;;0.04;100.00
69306;BME280;56427;51.580;4.656;2023-04-05T03:19:17;102351.72;;;0.01;100.00
69306;BME280;56427;51.580;4.656;2023-04-05T03:21:47;102356.06;;;-0.06;100.00
69306;BME280;56427;51.580;4.656;2023-04-05T03:24:13;102360.94;;;0.09;100.00
69306;BME280;56427;51.580;4.656;2023-04-05T03:26:38;102361.72;;;0.13;100.00
69306;BME280;56427;51.580;4.656;2023-04-05T03:29:04;102366.22;;;-0.03;100.00
69306;BME280;56427;51.580;4.656;2023-04-05T03:31:29;102357.06;;;-0.16;100.00
69306;BME280;56427;51.580;4.656;2023-04-05T03:33:55;102369.31;;;-0.46;100.00
69306;BME280;56427;51.580;4.656;2023-04-05T03:36:20;102362.41;;;-0.37;100.00
69306;BME280;56427;51.580;4.656;2023-04-05T03:38:45;102362.56;;;-0.49;100.00
69306;BME280;56427;51.580;4.656;2023-04-05T03:41:11;102361.63;;;-0.43;100.00
69306;BME280;56427;51.580;4.656;2023-04-05T03:43:36;102362.56;;;-0.49;100.00
69306;BME280;56427;51.580;4.656;2023-04-05T03:46:02;102357.44;;;-0.47;100.00
69306;BME280;56427;51.580;4.656;2023-04-05T03:48:27;102357.44;;;-0.47;100.00
69306;BME280;56427;51.580;4.656;2023-04-05T03:50:53;102360.75;;;-0.39;100.00
69306;BME280;56427;51.580;4.656;2023-04-05T03:53:18;102357.31;;;-0.37;100.00
69306;BME280;56427;51.580;4.656;2023-04-05T03:55:43;102350.06;;;-0.04;100.00
69306;BME280;56427;51.580;4.656;2023-04-05T03:58:14;102349.19;;;-0.03;100.00
69306;BME280;56427;51.580;4.656;2023-04-05T04:00:40;102345.16;;;-0.17;100.00
69306;BME280;56427;51.580;4.656;2023-04-05T04:03:05;102351.91;;;-0.15;100.00
69306;BME280;56427;51.580;4.656;2023-04-05T04:05:30;102355.44;;;-0.24;100.00
69306;BME280;56427;51.580;4.656;2023-04-05T04:07:57;102353.88;;;-0.34;100.00
69306;BME280;56427;51.580;4.656;2023-04-05T04:10:22;102359.84;;;-0.35;100.00
69306;BME280;56427;51.580;4.656;2023-04-05T04:12:47;102348.81;;;-0.37;100.00
69306;BME280;56427;51.580;4.656;2023-04-05T04:15:13;102353.84;;;-0.31;100.00
69306;BME280;56427;51.580;4.656;2023-04-05T04:17:38;102351.03;;;-0.12;100.00
69306;BME280;56427;51.580;4.656;2023-04-05T04:20:04;102341.91;;;-0.30;100.00
69306;BME280;56427;51.580;4.656;2023-04-05T04:22:33;102342.63;;;-0.19;100.00
69306;BME280;56427;51.580;4.656;2023-04-05T04:25:04;102346.03;;;-0.20;100.00
69306;BME280;56427;51.580;4.656;2023-04-05T04:27:30;102347.31;;;-0.52;100.00
69306;BME280;56427;51.580;4.656;2023-04-05T04:29:56;102344.94;;;-0.67;100.00
69306;BME280;56427;51.580;4.656;2023-04-05T04:32:27;102344.94;;;-0.67;100.00
69306;BME280;56427;51.580;4.656;2023-04-05T04:35:12;102346.72;;;-0.74;100.00
69306;BME280;56427;51.580;4.656;2023-04-05T04:38:00;102338.16;;;-0.68;100.00
69306;BME280;56427;51.580;4.656;2023-04-05T04:43:05;102341.50;;;-0.65;100.00
69306;BME280;56427;51.580;4.656;2023-04-05T04:45:31;102335.72;;;-0.81;100.00
69306;BME280;56427;51.580;4.656;2023-04-05T04:48:02;102339.91;;;-0.72;100.00
69306;BME280;56427;51.580;4.656;2023-04-05T04:50:29;102339.84;;;-0.67;100.00
69306;BME280;56427;51.580;4.656;2023-04-05T04:52:57;102334.50;;;-0.49;100.00
69306;BME280;56427;51.580;4.656;2023-04-05T04:55:22;102339.09;;;-0.74;100.00
69306;BME280;56427;51.580;4.656;2023-04-05T04:57:50;102333.91;;;-0.69;100.00
69306;BME280;56427;51.580;4.656;2023-04-05T05:00:16;102335.44;;;-0.56;100.00
69306;BME280;56427;51.580;4.656;2023-04-05T05:02:42;102332.13;;;-0.64;100.00
69306;BME280;56427;51.580;4.656;2023-04-05T05:05:08;102328.00;;;-0.73;100.00
69306;BME280;56427;51.580;4.656;2023-04-05T05:07:35;102334.03;;;-0.79;100.00
69306;BME280;56427;51.580;4.656;2023-04-05T05:10:01;102331.34;;;-0.68;100.00
69306;BME280;56427;51.580;4.656;2023-04-05T05:12:27;102337.19;;;-0.61;100.00
69306;BME280;56427;51.580;4.656;2023-04-05T05:14:52;102340.59;;;-0.58;100.00
69306;BME280;56427;51.580;4.656;2023-04-05T05:17:17;102338.88;;;-0.59;100.00
69306;BME280;56427;51.580;4.656;2023-04-05T05:19:44;102339.59;;;-0.46;100.00
69306;BME280;56427;51.580;4.656;2023-04-05T05:22:09;102341.97;;;-0.35;100.00
69306;BME280;56427;51.580;4.656;2023-04-05T05:24:35;102339.16;;;-0.15;100.00
69306;BME280;56427;51.580;4.656;2023-04-05T05:27:01;102345.06;;;-0.11;100.00
69306;BME280;56427;51.580;4.656;2023-04-05T05:29:26;102351.88;;;-0.12;100.00
69306;BME280;56427;51.580;4.656;2023-04-05T05:31:52;102353.69;;;-0.20;100.00
69306;BME280;56427;51.580;4.656;2023-04-05T05:34:17;102348.38;;;-0.03;100.00
69306;BME280;56427;51.580;4.656;2023-04-05T05:36:43;102350.63;;;0.15;100.00
69306;BME280;56427;51.580;4.656;2023-04-05T05:39:08;102342.56;;;0.42;100.00
69306;BME280;56427;51.580;4.656;2023-04-05T05:41:34;102346.66;;;0.52;100.00
69306;BME280;56427;51.580;4.656;2023-04-05T05:43:59;102344.25;;;0.93;100.00
69306;BME280;56427;51.580;4.656;2023-04-05T05:46:25;102350.13;;;1.80;100.00
69306;BME280;56427;51.580;4.656;2023-04-05T05:48:50;102350.88;;;2.23;100.00
69306;BME280;56427;51.580;4.656;2023-04-05T05:51:16;102342.25;;;2.94;100.00
69306;BME280;56427;51.580;4.656;2023-04-05T05:53:43;102352.38;;;4.17;100.00
69306;BME280;56427;51.580;4.656;2023-04-05T05:56:09;102354.63;;;5.03;100.00
69306;BME280;56427;51.580;4.656;2023-04-05T05:58:34;102347.38;;;5.38;100.00
69306;BME280;56427;51.580;4.656;2023-04-05T06:01:00;102342.72;;;5.48;100.00
69306;BME280;56427;51.580;4.656;2023-04-05T06:03:28;102339.47;;;5.19;100.00
69306;BME280;56427;51.580;4.656;2023-04-05T06:05:55;102344.59;;;5.66;100.00
69306;BME280;56427;51.580;4.656;2023-04-05T06:08:21;102343.88;;;6.08;100.00
69306;BME280;56427;51.580;4.656;2023-04-05T06:10:48;102337.88;;;5.62;100.00
69306;BME280;56427;51.580;4.656;2023-04-05T06:13:13;102333.50;;;6.72;100.00
69306;BME280;56427;51.580;4.656;2023-04-05T06:15:41;102335.81;;;7.36;100.00
69306;BME280;56427;51.580;4.656;2023-04-05T06:18:06;102331.72;;;7.32;100.00
69306;BME280;56427;51.580;4.656;2023-04-05T06:20:32;102342.53;;;7.96;100.00
69306;BME280;56427;51.580;4.656;2023-04-05T06:22:57;102331.41;;;7.58;100.00
69306;BME280;56427;51.580;4.656;2023-04-05T06:25:22;102339.63;;;8.39;100.00
69306;BME280;56427;51.580;4.656;2023-04-05T06:27:50;102338.03;;;9.05;97.59
69306;BME280;56427;51.580;4.656;2023-04-05T06:30:16;102339.63;;;9.87;94.12
69306;BME280;56427;51.580;4.656;2023-04-05T06:32:43;102334.84;;;10.25;87.42
69306;BME280;56427;51.580;4.656;2023-04-05T06:35:09;102345.22;;;9.63;83.45
69306;BME280;56427;51.580;4.656;2023-04-05T06:37:34;102342.63;;;9.63;85.52
69306;BME280;56427;51.580;4.656;2023-04-05T06:40:00;102337.56;;;9.46;85.40
69306;BME280;56427;51.580;4.656;2023-04-05T06:42:25;102337.69;;;9.11;88.07
69306;BME280;56427;51.580;4.656;2023-04-05T06:44:50;102336.81;;;8.43;89.77
69306;BME280;56427;51.580;4.656;2023-04-05T06:47:16;102333.84;;;9.34;89.94
69306;BME280;56427;51.580;4.656;2023-04-05T06:49:41;102342.41;;;9.02;89.74
69306;BME280;56427;51.580;4.656;2023-04-05T06:52:06;102336.09;;;8.75;90.67
69306;BME280;56427;51.580;4.656;2023-04-05T06:54:33;102341.50;;;9.03;88.29
69306;BME280;56427;51.580;4.656;2023-04-05T06:56:58;102328.84;;;9.31;89.62
69306;BME280;56427;51.580;4.656;2023-04-05T06:59:24;102336.28;;;9.21;81.67
69306;BME280;56427;51.580;4.656;2023-04-05T07:01:49;102330.22;;;11.18;73.93
69306;BME280;56427;51.580;4.656;2023-04-05T07:04:14;102330.84;;;9.10;71.70
69306;BME280;56427;51.580;4.656;2023-04-05T07:06:40;102334.69;;;9.50;74.60
69306;BME280;56427;51.580;4.656;2023-04-05T07:09:05;102330.94;;;9.56;75.95
69306;BME280;56427;51.580;4.656;2023-04-05T07:11:31;102331.97;;;10.00;74.41
69306;BME280;56427;51.580;4.656;2023-04-05T07:13:58;102324.66;;;10.53;73.45
69306;BME280;56427;51.580;4.656;2023-04-05T07:16:23;102327.31;;;10.51;70.21
69306;BME280;56427;51.580;4.656;2023-04-05T07:18:49;102321.88;;;10.25;74.40
69306;BME280;56427;51.580;4.656;2023-04-05T07:21:15;102319.50;;;11.65;68.60
69306;BME280;56427;51.580;4.656;2023-04-05T07:23:41;102323.06;;;11.22;65.36
69306;BME280;56427;51.580;4.656;2023-04-05T07:26:06;102316.19;;;11.07;69.00
69306;BME280;56427;51.580;4.656;2023-04-05T07:28:33;102325.47;;;11.11;67.01
69306;BME280;56427;51.580;4.656;2023-04-05T07:31:03;102320.53;;;9.88;70.33
69306;BME280;56427;51.580;4.656;2023-04-05T07:33:28;102311.06;;;10.47;66.53
69306;BME280;56427;51.580;4.656;2023-04-05T07:35:54;102313.69;;;10.17;69.56
69306;BME280;56427;51.580;4.656;2023-04-05T07:38:21;102316.38;;;10.16;68.94
69306;BME280;56427;51.580;4.656;2023-04-05T07:40:47;102312.81;;;11.33;67.64
69306;BME280;56427;51.580;4.656;2023-04-05T07:43:13;102315.06;;;10.39;67.01
69306;BME280;56427;51.580;4.656;2023-04-05T07:45:39;102315.56;;;11.45;65.80
69306;BME280;56427;51.580;4.656;2023-04-05T07:48:04;102304.44;;;11.42;65.89
69306;BME280;56427;51.580;4.656;2023-04-05T07:50:30;102305.69;;;11.08;66.20
69306;BME280;56427;51.580;4.656;2023-04-05T07:52:55;102313.53;;;12.04;66.04
69306;BME280;56427;51.580;4.656;2023-04-05T07:55:20;102315.03;;;12.47;64.96
69306;BME280;56427;51.580;4.656;2023-04-05T07:57:46;102316.44;;;11.31;60.07
69306;BME280;56427;51.580;4.656;2023-04-05T08:00:12;102314.91;;;11.41;61.00
69306;BME280;56427;51.580;4.656;2023-04-05T08:02:38;102318.97;;;11.59;56.92
69306;BME280;56427;51.580;4.656;2023-04-05T08:05:04;102313.50;;;11.08;55.79
69306;BME280;56427;51.580;4.656;2023-04-05T08:07:29;102307.94;;;11.00;58.08
69306;BME280;56427;51.580;4.656;2023-04-05T08:09:54;102305.28;;;11.43;55.83
69306;BME280;56427;51.580;4.656;2023-04-05T08:12:22;102310.41;;;12.12;55.55
69306;BME280;56427;51.580;4.656;2023-04-05T08:14:48;102312.47;;;12.07;55.15
69306;BME280;56427;51.580;4.656;2023-04-05T08:17:14;102311.19;;;13.15;51.57
69306;BME280;56427;51.580;4.656;2023-04-05T08:19:40;102311.47;;;12.48;53.85
69306;BME280;56427;51.580;4.656;2023-04-05T08:22:08;102306.88;;;12.26;52.79
69306;BME280;56427;51.580;4.656;2023-04-05T08:24:33;102304.91;;;12.29;52.59
69306;BME280;56427;51.580;4.656;2023-04-05T08:26:58;102309.72;;;12.48;53.55
69306;BME280;56427;51.580;4.656;2023-04-05T08:29:25;102312.53;;;13.21;48.90
69306;BME280;56427;51.580;4.656;2023-04-05T08:31:50;102312.66;;;13.19;52.87
69306;BME280;56427;51.580;4.656;2023-04-05T08:34:15;102306.44;;;13.46;52.81
69306;BME280;56427;51.580;4.656;2023-04-05T08:36:41;102306.25;;;13.36;51.16
69306;BME280;56427;51.580;4.656;2023-04-05T08:39:06;102301.22;;;13.70;51.70
69306;BME280;56427;51.580;4.656;2023-04-05T08:41:40;102305.16;;;13.15;48.68
69306;BME280;56427;51.580;4.656;2023-04-05T08:44:08;102296.97;;;12.69;46.90
69306;BME280;56427;51.580;4.656;2023-04-05T08:46:34;102297.22;;;13.16;47.73
69306;BME280;56427;51.580;4.656;2023-04-05T08:49:04;102285.31;;;12.88;49.55
69306;BME280;56427;51.580;4.656;2023-04-05T08:51:31;102294.19;;;13.22;48.17
69306;BME280;56427;51.580;4.656;2023-04-05T08:53:58;102289.78;;;13.23;44.91
69306;BME280;56427;51.580;4.656;2023-04-05T08:56:26;102292.53;;;12.72;42.56
69306;BME280;56427;51.580;4.656;2023-04-05T09:01:29;102290.13;;;13.55;45.13
69306;BME280;56427;51.580;4.656;2023-04-05T09:03:56;102294.41;;;13.19;45.80
69306;BME280;56427;51.580;4.656;2023-04-05T09:06:24;102288.03;;;12.22;44.74
69306;BME280;56427;51.580;4.656;2023-04-05T09:08:52;102288.47;;;11.89;44.36
69306;BME280;56427;51.580;4.656;2023-04-05T09:11:19;102287.81;;;12.89;45.12
69306;BME280;56427;51.580;4.656;2023-04-05T09:13:44;102286.25;;;14.08;41.92
69306;BME280;56427;51.580;4.656;2023-04-05T09:16:10;102293.19;;;13.49;41.21
69306;BME280;56427;51.580;4.656;2023-04-05T09:18:36;102292.88;;;14.81;40.25
69306;BME280;56427;51.580;4.656;2023-04-05T09:21:05;102285.28;;;14.67;40.34
69306;BME280;56427;51.580;4.656;2023-04-05T09:23:33;102286.50;;;14.05;41.16
69306;BME280;56427;51.580;4.656;2023-04-05T09:25:59;102289.78;;;13.23;41.66
69306;BME280;56427;51.580;4.656;2023-04-05T09:28:40;102277.59;;;13.60;42.74
69306;BME280;56427;51.580;4.656;2023-04-05T09:31:09;102290.56;;;13.49;40.97
69306;BME280;56427;51.580;4.656;2023-04-05T09:33:34;102278.97;;;13.16;43.53
69306;BME280;56427;51.580;4.656;2023-04-05T09:36:01;102276.84;;;13.58;41.68
69306;BME280;56427;51.580;4.656;2023-04-05T09:38:42;102277.69;;;12.98;44.75
69306;BME280;56427;51.580;4.656;2023-04-05T09:41:08;102273.94;;;13.50;42.59
69306;BME280;56427;51.580;4.656;2023-04-05T09:43:38;102266.97;;;12.77;42.33
69306;BME280;56427;51.580;4.656;2023-04-05T09:46:05;102276.06;;;12.58;44.05
69306;BME280;56427;51.580;4.656;2023-04-05T09:48:47;102271.34;;;13.26;43.89
69306;BME280;56427;51.580;4.656;2023-04-05T09:51:16;102269.28;;;12.30;43.81
69306;BME280;56427;51.580;4.656;2023-04-05T09:54:01;102277.22;;;12.15;43.68
69306;BME280;56427;51.580;4.656;2023-04-05T09:56:29;102267.91;;;13.50;43.08
69306;BME280;56427;51.580;4.656;2023-04-05T09:59:05;102268.34;;;12.31;43.60
69306;BME280;56427;51.580;4.656;2023-04-05T10:01:31;102277.78;;;13.33;43.12
69306;BME280;56427;51.580;4.656;2023-04-05T10:03:57;102257.41;;;12.64;43.12
69306;BME280;56427;51.580;4.656;2023-04-05T10:06:41;102253.34;;;11.96;43.37
69306;BME280;56427;51.580;4.656;2023-04-05T10:09:08;102258.88;;;12.30;43.50
69306;BME280;56427;51.580;4.656;2023-04-05T10:11:35;102256.16;;;12.31;45.03
69306;BME280;56427;51.580;4.656;2023-04-05T10:14:03;102239.91;;;13.40;43.28
69306;BME280;56427;51.580;4.656;2023-04-05T10:16:31;102256.06;;;13.46;42.70
69306;BME280;56427;51.580;4.656;2023-04-05T10:18:58;102255.16;;;12.97;43.92
69306;BME280;56427;51.580;4.656;2023-04-05T10:21:30;102251.28;;;12.40;42.38
69306;BME280;56427;51.580;4.656;2023-04-05T10:24:12;102249.41;;;13.04;43.09
69306;BME280;56427;51.580;4.656;2023-04-05T10:29:29;102241.50;;;13.54;40.66
69306;BME280;56427;51.580;4.656;2023-04-05T10:32:03;102240.34;;;13.34;40.54
69306;BME280;56427;51.580;4.656;2023-04-05T10:38:00;102238.41;;;13.49;39.24
69306;BME280;56427;51.580;4.656;2023-04-05T10:40:31;102241.25;;;12.59;42.32
69306;BME280;56427;51.580;4.656;2023-04-05T10:42:57;102245.75;;;12.44;42.84
69306;BME280;56427;51.580;4.656;2023-04-05T10:45:24;102224.81;;;11.54;44.17
69306;BME280;56427;51.580;4.656;2023-04-05T10:47:57;102233.50;;;11.68;44.74
69306;BME280;56427;51.580;4.656;2023-04-05T10:50:24;102236.00;;;11.82;45.64
69306;BME280;56427;51.580;4.656;2023-04-05T10:52:50;102240.44;;;12.96;46.88
69306;BME280;56427;51.580;4.656;2023-04-05T10:55:17;102235.69;;;12.89;43.67
69306;BME280;56427;51.580;4.656;2023-04-05T10:57:43;102225.81;;;12.82;42.33
69306;BME280;56427;51.580;4.656;2023-04-05T11:00:10;102231.59;;;12.10;44.26
69306;BME280;56427;51.580;4.656;2023-04-05T11:02:36;102221.78;;;13.26;43.34
69306;BME280;56427;51.580;4.656;2023-04-05T11:05:03;102219.81;;;12.56;43.36
69306;BME280;56427;51.580;4.656;2023-04-05T11:07:42;102215.22;;;12.59;44.60
69306;BME280;56427;51.580;4.656;2023-04-05T11:10:15;102226.59;;;12.45;42.61
69306;BME280;56427;51.580;4.656;2023-04-05T11:20:52;102194.63;;;12.93;44.73
69306;BME280;56427;51.580;4.656;2023-04-05T11:23:22;102203.22;;;13.31;44.10
69306;BME280;56427;51.580;4.656;2023-04-05T11:26:03;102196.41;;;13.41;44.34
69306;BME280;56427;51.580;4.656;2023-04-05T11:28:37;102202.47;;;12.80;43.13
69306;BME280;56427;51.580;4.656;2023-04-05T11:31:18;102191.34;;;13.26;42.38
69306;BME280;56427;51.580;4.656;2023-04-05T11:36:10;102197.28;;;12.67;43.10
69306;BME280;56427;51.580;4.656;2023-04-05T11:38:37;102197.25;;;13.29;44.19
69306;BME280;56427;51.580;4.656;2023-04-05T11:41:16;102190.66;;;13.60;43.13
69306;BME280;56427;51.580;4.656;2023-04-05T11:43:45;102184.69;;;13.22;43.69
69306;BME280;56427;51.580;4.656;2023-04-05T11:46:15;102187.56;;;14.13;42.52
69306;BME280;56427;51.580;4.656;2023-04-05T11:48:41;102176.28;;;14.24;40.69
69306;BME280;56427;51.580;4.656;2023-04-05T11:51:09;102169.91;;;13.70;39.88
69306;BME280;56427;51.580;4.656;2023-04-05T11:53:36;102171.47;;;13.72;41.29
69306;BME280;56427;51.580;4.656;2023-04-05T11:56:11;102168.03;;;13.60;42.03
69306;BME280;56427;51.580;4.656;2023-04-05T11:58:40;102173.31;;;14.17;40.87
69306;BME280;56427;51.580;4.656;2023-04-05T12:01:07;102166.78;;;14.23;40.39
69306;BME280;56427;51.580;4.656;2023-04-05T12:03:33;102161.88;;;13.84;39.62
69306;BME280;56427;51.580;4.656;2023-04-05T12:06:04;102160.84;;;13.40;39.34
69306;BME280;56427;51.580;4.656;2023-04-05T12:08:38;102150.59;;;13.72;39.33
69306;BME280;56427;51.580;4.656;2023-04-05T12:11:07;102155.38;;;13.90;39.35
69306;BME280;56427;51.580;4.656;2023-04-05T12:13:33;102151.22;;;13.87;38.20
69306;BME280;56427;51.580;4.656;2023-04-05T12:16:04;102151.19;;;13.29;38.79
69306;BME280;56427;51.580;4.656;2023-04-05T12:18:32;102145.03;;;13.99;39.66
69306;BME280;56427;51.580;4.656;2023-04-05T12:20:59;102148.03;;;13.95;36.72
69306;BME280;56427;51.580;4.656;2023-04-05T12:23:25;102146.69;;;13.78;37.81
69306;BME280;56427;51.580;4.656;2023-04-05T12:25:53;102144.09;;;13.07;37.56
69306;BME280;56427;51.580;4.656;2023-04-05T12:28:19;102135.34;;;13.08;38.86
69306;BME280;56427;51.580;4.656;2023-04-05T12:30:49;102144.69;;;13.35;38.94
69306;BME280;56427;51.580;4.656;2023-04-05T12:33:14;102142.44;;;14.11;39.07
69306;BME280;56427;51.580;4.656;2023-04-05T12:35:40;102137.69;;;14.27;39.39
69306;BME280;56427;51.580;4.656;2023-04-05T12:38:06;102137.22;;;13.99;41.15
69306;BME280;56427;51.580;4.656;2023-04-05T12:40:34;102141.91;;;13.25;39.95
69306;BME280;56427;51.580;4.656;2023-04-05T12:43:01;102134.75;;;13.87;39.21
69306;BME280;56427;51.580;4.656;2023-04-05T12:45:27;102141.09;;;13.24;40.95
69306;BME280;56427;51.580;4.656;2023-04-05T12:47:58;102127.78;;;13.40;40.36
69306;BME280;56427;51.580;4.656;2023-04-05T12:50:28;102122.66;;;14.08;39.75
69306;BME280;56427;51.580;4.656;2023-04-05T12:52:58;102125.25;;;14.08;39.40
69306;BME280;56427;51.580;4.656;2023-04-05T12:55:26;102123.06;;;13.68;41.33
69306;BME280;56427;51.580;4.656;2023-04-05T12:57:53;102113.09;;;13.51;41.30
69306;BME280;56427;51.580;4.656;2023-04-05T13:00:20;102109.81;;;13.71;39.72
69306;BME280;56427;51.580;4.656;2023-04-05T13:02:52;102105.78;;;13.32;42.12
69306;BME280;56427;51.580;4.656;2023-04-05T13:05:30;102097.81;;;13.57;42.13
69306;BME280;56427;51.580;4.656;2023-04-05T13:07:56;102089.41;;;13.54;42.06
69306;BME280;56427;51.580;4.656;2023-04-05T13:10:23;102089.78;;;13.72;41.77
69306;BME280;56427;51.580;4.656;2023-04-05T13:12:49;102076.84;;;13.70;41.95
69306;BME280;56427;51.580;4.656;2023-04-05T13:15:15;102089.88;;;13.93;40.17